Time;durP1;ratioP1;P1;durP2;ratioP2;P2;SDS_P1;SDS_P2;PMS_P1;PMS_P2;Temp;Humidity;BMP_temperature;BMP_pressure;BME280_temperature;BME280_humidity;BME280_pressure;Samples;Min_cycle;Max_cycle;Signal;HPM_P1;HPM_P2
2022/08/10 00:00:50;;;;;;;2.10;1.92;;;;;;;;;;5046498;28;20205;-67
2022/08/10 00:03:17;;;;;;;1.50;1.50;;;;;;;;;;5058448;28;20209;-66
2022/08/10 00:05:45;;;;;;;1.92;1.65;;;;;;;;;;5056354;28;20202;-67
2022/08/10 00:08:19;;;;;;;1.73;1.63;;;;;;;;;;5070286;28;20231;-64
2022/08/10 00:10:54;;;;;;;3.38;1.60;;;;;;;;;;5045416;28;20712;-67
2022/08/10 00:13:22;;;;;;;2.78;1.63;;;;;;;;;;5047403;28;20790;-67
2022/08/10 00:15:50;;;;;;;3.17;1.85;;;;;;;;;;5038310;28;20343;-66
2022/08/10 00:18:21;;;;;;;2.75;1.80;;;;;;;;;;5056783;28;20252;-66
2022/08/10 00:21:05;;;;;;;4.10;1.80;;;;;;;;;;5041439;28;20289;-66
2022/08/10 00:23:34;;;;;;;4.35;1.67;;;;;;;;;;5060646;28;20209;-68
2022/08/10 00:26:01;;;;;;;1.83;1.50;;;;;;;;;;5041039;28;20202;-66
2022/08/10 00:28:29;;;;;;;1.70;1.60;;;;;;;;;;5042910;28;20605;-67
2022/08/10 00:30:56;;;;;;;1.80;1.52;;;;;;;;;;5041226;28;20204;-67
2022/08/10 00:33:24;;;;;;;2.15;1.40;;;;;;;;;;5058881;28;21707;-68
2022/08/10 00:35:51;;;;;;;3.05;2.00;;;;;;;;;;5071747;28;20193;-67
2022/08/10 00:38:18;;;;;;;3.40;1.95;;;;;;;;;;5073868;28;20263;-66
2022/08/10 00:40:46;;;;;;;1.70;1.60;;;;;;;;;;5041382;28;20260;-67
2022/08/10 00:43:13;;;;;;;2.03;1.73;;;;;;;;;;5058334;28;20255;-67
2022/08/10 00:45:49;;;;;;;2.58;1.60;;;;;;;;;;5055031;28;20232;-67
2022/08/10 00:48:28;;;;;;;2.25;2.05;;;;;;;;;;5046467;28;20306;-68
2022/08/10 00:50:57;;;;;;;1.73;1.55;;;;;;;;;;5079311;28;20635;-65
2022/08/10 00:53:25;;;;;;;2.53;1.70;;;;;;;;;;5046773;28;20204;-67
2022/08/10 00:55:53;;;;;;;2.78;2.22;;;;;;;;;;5047820;28;20207;-67
2022/08/10 00:58:40;;;;;;;1.80;1.60;;;;;;;;;;5044036;28;20302;-65
2022/08/10 01:01:07;;;;;;;3.05;1.83;;;;;;;;;;5042692;28;20202;-67
2022/08/10 01:03:55;;;;;;;3.22;1.63;;;;;;;;;;5067026;28;20266;-63
2022/08/10 01:07:01;;;;;;;1.70;1.60;;;;;;;;;;5049150;28;20318;-66
2022/08/10 01:09:34;;;;;;;2.75;1.92;;;;;;;;;;5061084;28;20233;-68
2022/08/10 01:12:09;;;;;;;2.03;1.90;;;;;;;;;;5055120;28;20212;-68
2022/08/10 01:15:26;;;;;;;2.85;1.60;;;;;;;;;;5063105;28;20255;-67
2022/08/10 01:18:12;;;;;;;2.40;1.77;;;;;;;;;;5053571;28;20212;-69
2022/08/10 01:20:39;;;;;;;3.40;2.10;;;;;;;;;;5049244;28;20662;-67
2022/08/10 01:23:07;;;;;;;3.50;1.88;;;;;;;;;;5043891;28;21242;-66
2022/08/10 01:25:34;;;;;;;4.13;1.80;;;;;;;;;;5059358;28;20697;-63
2022/08/10 01:28:28;;;;;;;2.13;1.90;;;;;;;;;;5062564;28;20218;-67
2022/08/10 01:30:58;;;;;;;1.93;1.83;;;;;;;;;;5058321;28;20244;-67
2022/08/10 01:33:29;;;;;;;4.87;2.07;;;;;;;;;;5060929;28;20267;-63
2022/08/10 01:36:18;;;;;;;2.27;1.73;;;;;;;;;;5059400;28;20213;-66
2022/08/10 01:38:59;;;;;;;1.80;1.70;;;;;;;;;;5059632;28;20798;-68
2022/08/10 01:41:43;;;;;;;3.17;2.10;;;;;;;;;;5041045;28;20569;-67
2022/08/10 01:44:16;;;;;;;1.93;1.80;;;;;;;;;;5057180;28;20217;-67
2022/08/10 01:46:48;;;;;;;2.00;1.90;;;;;;;;;;5059725;28;20217;-67
2022/08/10 01:49:24;;;;;;;2.30;1.93;;;;;;;;;;5053833;28;20229;-68
2022/08/10 01:51:55;;;;;;;2.10;2.00;;;;;;;;;;5058928;28;20235;-67
2022/08/10 01:54:26;;;;;;;1.80;1.70;;;;;;;;;;5052110;28;20213;-67
2022/08/10 01:56:56;;;;;;;2.90;2.07;;;;;;;;;;5054900;28;20209;-66
2022/08/10 01:59:28;;;;;;;4.23;2.40;;;;;;;;;;5052036;28;20230;-67
2022/08/10 02:01:59;;;;;;;2.73;2.10;;;;;;;;;;5043266;28;20698;-67
2022/08/10 02:04:28;;;;;;;2.60;2.27;;;;;;;;;;5049411;28;20233;-65
2022/08/10 02:06:55;;;;;;;2.50;2.30;;;;;;;;;;5044141;28;20643;-67
2022/08/10 02:09:25;;;;;;;2.20;2.10;;;;;;;;;;5054414;28;20224;-66
2022/08/10 02:11:55;;;;;;;2.10;2.00;;;;;;;;;;5058593;28;20251;-66
2022/08/10 02:14:35;;;;;;;4.80;2.53;;;;;;;;;;5053343;28;20212;-67
2022/08/10 02:17:06;;;;;;;2.37;2.00;;;;;;;;;;5047657;28;20253;-67
2022/08/10 02:19:35;;;;;;;2.10;2.00;;;;;;;;;;5043315;28;20236;-66
2022/08/10 02:22:04;;;;;;;3.83;2.57;;;;;;;;;;5042164;28;20213;-65
2022/08/10 02:24:52;;;;;;;3.83;2.37;;;;;;;;;;5059027;28;20717;-66
2022/08/10 02:27:22;;;;;;;3.17;2.30;;;;;;;;;;5058048;28;20251;-66
2022/08/10 02:29:50;;;;;;;2.30;2.10;;;;;;;;;;5061159;28;20274;-67
2022/08/10 02:32:19;;;;;;;2.40;2.20;;;;;;;;;;5045072;28;20295;-67
2022/08/10 02:35:05;;;;;;;2.73;2.17;;;;;;;;;;5049232;28;20201;-65
2022/08/10 02:37:34;;;;;;;4.20;2.37;;;;;;;;;;5044745;28;20738;-67
2022/08/10 02:40:01;;;;;;;3.73;2.37;;;;;;;;;;5045011;28;20270;-67
2022/08/10 02:42:30;;;;;;;2.40;2.20;;;;;;;;;;5059648;28;20346;-66
2022/08/10 02:45:28;;;;;;;4.60;2.40;;;;;;;;;;5053454;28;20232;-66
2022/08/10 02:48:09;;;;;;;2.30;2.07;;;;;;;;;;5069651;28;20197;-67
2022/08/10 02:50:39;;;;;;;3.70;2.13;;;;;;;;;;5049403;28;20204;-66
2022/08/10 02:53:20;;;;;;;2.70;2.20;;;;;;;;;;5036860;28;20205;-66
2022/08/10 02:56:20;;;;;;;3.77;2.50;;;;;;;;;;5054890;28;20256;-65
2022/08/10 02:58:50;;;;;;;2.10;2.00;;;;;;;;;;5044013;28;20237;-66
2022/08/10 03:01:20;;;;;;;2.43;2.00;;;;;;;;;;5042935;28;20218;-66
2022/08/10 03:03:49;;;;;;;2.60;2.40;;;;;;;;;;5055295;28;20214;-66
2022/08/10 03:06:21;;;;;;;4.90;2.53;;;;;;;;;;5064248;28;20221;-65
2022/08/10 03:08:48;;;;;;;2.60;2.20;;;;;;;;;;5060445;28;20221;-67
2022/08/10 03:11:20;;;;;;;2.77;2.07;;;;;;;;;;5041378;28;20299;-67
2022/08/10 03:14:08;;;;;;;2.27;2.07;;;;;;;;;;5062609;28;20198;-67
2022/08/10 03:16:36;;;;;;;3.67;2.57;;;;;;;;;;5055441;28;20199;-66
2022/08/10 03:19:05;;;;;;;2.40;2.20;;;;;;;;;;5057299;28;20246;-65
2022/08/10 03:21:53;;;;;;;2.43;2.27;;;;;;;;;;5051773;28;20205;-65
2022/08/10 03:24:21;;;;;;;2.70;2.40;;;;;;;;;;5044395;28;20232;-66
2022/08/10 03:26:59;;;;;;;2.60;2.40;;;;;;;;;;5045123;28;20201;-65
2022/08/10 03:29:27;;;;;;;3.83;2.40;;;;;;;;;;5058842;28;20234;-65
2022/08/10 03:31:56;;;;;;;3.27;2.50;;;;;;;;;;5057166;28;20204;-65
2022/08/10 03:34:23;;;;;;;4.93;2.60;;;;;;;;;;5064661;28;20615;-65
2022/08/10 03:37:00;;;;;;;2.37;2.20;;;;;;;;;;5065680;28;20201;-65
2022/08/10 03:39:27;;;;;;;2.70;2.50;;;;;;;;;;5060975;28;22104;-65
2022/08/10 03:41:57;;;;;;;3.43;2.40;;;;;;;;;;5046079;28;20241;-63
2022/08/10 03:44:25;;;;;;;3.97;2.30;;;;;;;;;;5061547;28;20296;-66
2022/08/10 03:46:53;;;;;;;2.67;2.30;;;;;;;;;;5054264;28;20205;-65
2022/08/10 03:49:21;;;;;;;4.80;2.43;;;;;;;;;;5063736;28;20255;-65
2022/08/10 03:51:50;;;;;;;2.50;2.30;;;;;;;;;;5040464;28;21428;-65
2022/08/10 03:54:18;;;;;;;4.10;2.37;;;;;;;;;;5032534;28;20714;-66
2022/08/10 03:56:45;;;;;;;3.13;2.30;;;;;;;;;;5050524;28;20206;-64
2022/08/10 03:59:14;;;;;;;5.20;2.90;;;;;;;;;;5061682;28;20225;-66
2022/08/10 04:01:42;;;;;;;2.43;2.23;;;;;;;;;;5048690;28;20201;-66
2022/08/10 04:04:29;;;;;;;2.80;2.17;;;;;;;;;;5046589;28;20202;-66
2022/08/10 04:06:58;;;;;;;3.60;2.67;;;;;;;;;;5045682;28;20316;-66
2022/08/10 04:09:29;;;;;;;4.27;2.47;;;;;;;;;;5062678;28;20226;-65
2022/08/10 04:12:16;;;;;;;3.03;2.40;;;;;;;;;;5046746;28;20260;-65
2022/08/10 04:14:44;;;;;;;4.17;2.40;;;;;;;;;;5047713;28;20629;-66
2022/08/10 04:17:18;;;;;;;3.03;2.63;;;;;;;;;;5055851;28;20217;-66
2022/08/10 04:20:05;;;;;;;2.20;2.10;;;;;;;;;;5057299;28;20225;-65
2022/08/10 04:22:33;;;;;;;2.57;2.37;;;;;;;;;;5059578;28;20255;-65
2022/08/10 04:25:03;;;;;;;2.53;2.33;;;;;;;;;;5041024;28;20230;-65
2022/08/10 04:27:31;;;;;;;3.30;2.37;;;;;;;;;;5044791;28;20209;-66
2022/08/10 04:29:58;;;;;;;2.70;2.40;;;;;;;;;;5060931;28;20232;-64
2022/08/10 04:32:30;;;;;;;2.77;2.57;;;;;;;;;;5040862;28;20288;-65
2022/08/10 04:34:58;;;;;;;3.83;2.13;;;;;;;;;;5057732;28;20834;-63
2022/08/10 04:37:26;;;;;;;2.60;2.40;;;;;;;;;;5047188;28;20205;-65
2022/08/10 04:39:54;;;;;;;2.47;2.30;;;;;;;;;;5067519;28;20306;-64
2022/08/10 04:42:22;;;;;;;2.70;2.30;;;;;;;;;;5045351;28;20198;-65
2022/08/10 04:44:49;;;;;;;3.10;2.07;;;;;;;;;;5052706;28;20278;-66
2022/08/10 04:47:17;;;;;;;2.20;2.00;;;;;;;;;;5056757;28;20214;-66
2022/08/10 04:50:07;;;;;;;2.43;2.23;;;;;;;;;;5051350;28;20738;-65
2022/08/10 04:52:35;;;;;;;3.17;2.23;;;;;;;;;;5062839;28;20209;-66
2022/08/10 04:55:03;;;;;;;3.27;2.80;;;;;;;;;;5079827;28;20263;-66
2022/08/10 04:57:31;;;;;;;3.87;2.03;;;;;;;;;;5048433;28;20201;-66
2022/08/10 04:59:58;;;;;;;2.60;2.30;;;;;;;;;;5051428;28;20229;-66
2022/08/10 05:02:25;;;;;;;3.13;2.40;;;;;;;;;;5057313;28;20228;-66
2022/08/10 05:04:58;;;;;;;3.37;2.30;;;;;;;;;;5063734;28;20244;-66
2022/08/10 05:07:26;;;;;;;2.53;2.10;;;;;;;;;;5063363;28;20206;-66
2022/08/10 05:09:53;;;;;;;3.93;2.30;;;;;;;;;;5048596;28;20221;-66
2022/08/10 05:12:36;;;;;;;3.70;2.20;;;;;;;;;;5069279;28;20205;-66
2022/08/10 05:15:09;;;;;;;2.23;2.07;;;;;;;;;;5059154;28;20206;-66
2022/08/10 05:17:37;;;;;;;2.43;2.13;;;;;;;;;;5059694;28;20213;-65
2022/08/10 05:20:06;;;;;;;3.00;2.10;;;;;;;;;;5067308;28;20699;-67
2022/08/10 05:22:35;;;;;;;2.20;2.10;;;;;;;;;;5049166;28;20214;-64
2022/08/10 05:25:03;;;;;;;2.80;2.40;;;;;;;;;;5064671;28;20702;-64
2022/08/10 05:27:31;;;;;;;3.63;2.13;;;;;;;;;;5044251;28;20496;-63
2022/08/10 05:29:58;;;;;;;2.53;2.00;;;;;;;;;;5052897;28;20573;-64
2022/08/10 05:32:27;;;;;;;2.97;2.30;;;;;;;;;;5050470;28;20214;-66
2022/08/10 05:34:55;;;;;;;3.43;2.37;;;;;;;;;;5048817;28;20197;-64
2022/08/10 05:37:23;;;;;;;2.57;2.20;;;;;;;;;;5059170;28;20206;-64
2022/08/10 05:40:11;;;;;;;2.70;2.00;;;;;;;;;;5052341;28;20255;-66
2022/08/10 05:42:39;;;;;;;5.50;2.15;;;;;;;;;;5063032;28;20205;-64
2022/08/10 05:45:09;;;;;;;1.77;1.67;;;;;;;;;;5049685;28;20633;-64
2022/08/10 05:47:36;;;;;;;3.38;1.65;;;;;;;;;;5049193;28;20204;-66
2022/08/10 05:50:26;;;;;;;2.33;1.70;;;;;;;;;;5064416;28;20205;-66
2022/08/10 05:52:53;;;;;;;;;;;;;;;;;;5065576;28;20114;-65
2022/08/10 05:55:22;;;;;;;3.22;1.58;;;;;;;;;;5063440;28;20398;-66
2022/08/10 05:57:49;;;;;;;2.33;1.30;;;;;;;;;;5047213;28;20659;-65
2022/08/10 06:00:20;;;;;;;3.63;1.48;;;;;;;;;;5078118;28;20213;-66
2022/08/10 06:03:07;;;;;;;2.50;1.17;;;;;;;;;;5054066;28;20213;-63
2022/08/10 06:05:38;;;;;;;1.52;1.33;;;;;;;;;;5058261;28;20723;-66
2022/08/10 06:08:13;;;;;;;1.88;1.60;;;;;;;;;;5075270;28;20707;-65
2022/08/10 06:10:41;;;;;;;1.88;1.55;;;;;;;;;;5064297;28;20205;-66
2022/08/10 06:16:37;;;;;;;2.00;1.73;;;;;;;;;;5059147;28;20237;-65
2022/08/10 06:19:05;;;;;;;3.65;1.50;;;;;;;;;;5063545;28;20243;-65
2022/08/10 06:21:33;;;;;;;1.90;1.70;;;;;;;;;;5051852;28;20259;-66
2022/08/10 06:24:01;;;;;;;2.33;1.70;;;;;;;;;;5049227;28;20198;-65
2022/08/10 06:26:29;;;;;;;2.78;2.00;;;;;;;;;;5047968;28;20225;-66
2022/08/10 06:28:59;;;;;;;1.73;1.63;;;;;;;;;;5052607;28;20292;-65
2022/08/10 06:31:31;;;;;;;2.70;1.60;;;;;;;;;;5042101;28;20692;-66
2022/08/10 06:34:17;;;;;;;2.22;1.83;;;;;;;;;;5065226;28;20276;-65
2022/08/10 06:36:45;;;;;;;2.03;1.90;;;;;;;;;;5065145;28;20205;-66
2022/08/10 06:39:13;;;;;;;3.67;1.90;;;;;;;;;;5078673;28;20225;-66
2022/08/10 06:42:20;;;;;;;2.92;2.20;;;;;;;;;;5046538;28;20197;-66
2022/08/10 06:44:56;;;;;;;1.73;1.63;;;;;;;;;;5046260;28;20540;-66
2022/08/10 06:47:26;;;;;;;1.85;1.70;;;;;;;;;;5065964;28;20282;-65
2022/08/10 06:49:56;;;;;;;2.47;2.08;;;;;;;;;;5048982;28;20282;-66
2022/08/10 06:52:26;;;;;;;2.72;1.80;;;;;;;;;;5050126;28;20659;-65
2022/08/10 06:54:55;;;;;;;2.33;1.60;;;;;;;;;;5062217;28;20206;-65
2022/08/10 06:57:25;;;;;;;2.55;2.00;;;;;;;;;;5049309;28;20744;-65
2022/08/10 06:59:53;;;;;;;2.22;1.83;;;;;;;;;;5057492;28;20271;-65
2022/08/10 07:02:29;;;;;;;3.78;2.08;;;;;;;;;;5048600;28;20204;-67
2022/08/10 07:04:58;;;;;;;3.33;1.88;;;;;;;;;;5047561;28;21031;-66
2022/08/10 07:07:27;;;;;;;4.50;2.00;;;;;;;;;;5045091;28;20638;-66
2022/08/10 07:09:57;;;;;;;3.30;1.73;;;;;;;;;;5075149;28;20388;-66
2022/08/10 07:12:24;;;;;;;3.72;1.75;;;;;;;;;;5044565;28;20217;-66
2022/08/10 07:14:53;;;;;;;4.53;1.98;;;;;;;;;;5065740;28;20269;-65
2022/08/10 07:17:21;;;;;;;2.88;1.85;;;;;;;;;;5060632;28;20209;-66
2022/08/10 07:19:51;;;;;;;2.90;1.80;;;;;;;;;;5062888;28;20218;-63
2022/08/10 07:22:20;;;;;;;2.20;1.85;;;;;;;;;;5082402;28;20213;-64
2022/08/10 07:25:09;;;;;;;2.50;1.80;;;;;;;;;;5063189;28;20206;-64
2022/08/10 07:27:38;;;;;;;2.53;1.83;;;;;;;;;;5054362;28;20638;-66
2022/08/10 07:30:29;;;;;;;2.20;1.73;;;;;;;;;;5053886;28;20269;-64
2022/08/10 07:32:58;;;;;;;3.20;1.80;;;;;;;;;;5056761;28;20694;-65
2022/08/10 07:35:26;;;;;;;2.88;1.70;;;;;;;;;;5041736;28;20209;-65
2022/08/10 07:37:56;;;;;;;3.47;1.60;;;;;;;;;;5062162;28;20213;-64
2022/08/10 07:40:23;;;;;;;2.95;1.75;;;;;;;;;;5060028;28;20205;-64
2022/08/10 07:42:53;;;;;;;3.78;1.90;;;;;;;;;;5047334;28;20202;-65
2022/08/10 07:45:20;;;;;;;2.75;1.60;;;;;;;;;;5050772;28;20254;-66
2022/08/10 07:48:09;;;;;;;2.30;1.50;;;;;;;;;;5059497;28;20206;-65
2022/08/10 07:50:38;;;;;;;3.83;1.75;;;;;;;;;;5056544;28;20625;-66
2022/08/10 07:53:08;;;;;;;1.58;1.48;;;;;;;;;;5055213;28;20207;-66
2022/08/10 07:55:36;;;;;;;3.90;1.70;;;;;;;;;;5060639;28;20216;-64
2022/08/10 07:58:26;;;;;;;1.60;1.50;;;;;;;;;;5048907;28;20358;-65
2022/08/10 08:00:54;;;;;;;6.25;1.65;;;;;;;;;;5043979;28;20473;-64
2022/08/10 08:03:27;;;;;;;1.92;1.45;;;;;;;;;;5062210;28;20205;-66
2022/08/10 08:05:56;;;;;;;3.85;1.60;;;;;;;;;;5048188;28;20721;-66
2022/08/10 08:08:38;;;;;;;2.13;1.58;;;;;;;;;;5045731;28;20643;-64
2022/08/10 08:11:06;;;;;;;2.40;1.55;;;;;;;;;;5042037;28;20201;-66
2022/08/10 08:13:33;;;;;;;1.30;1.20;;;;;;;;;;5059731;28;20206;-65
2022/08/10 08:16:03;;;;;;;2.63;1.60;;;;;;;;;;5042021;28;20206;-65
2022/08/10 08:18:48;;;;;;;2.15;1.70;;;;;;;;;;5044512;28;20745;-66
2022/08/10 08:21:36;;;;;;;2.88;1.30;;;;;;;;;;5060475;28;20201;-64
2022/08/10 08:24:23;;;;;;;1.75;1.65;;;;;;;;;;5047979;28;20279;-65
2022/08/10 08:27:01;;;;;;;1.85;1.23;;;;;;;;;;5054428;28;20226;-66
2022/08/10 08:29:31;;;;;;;7.07;1.65;;;;;;;;;;5058958;28;20225;-66
2022/08/10 08:31:58;;;;;;;2.67;1.40;;;;;;;;;;5051993;28;20202;-65
2022/08/10 08:34:30;;;;;;;2.75;1.50;;;;;;;;;;5040810;28;20229;-66
2022/08/10 08:36:57;;;;;;;3.80;1.52;;;;;;;;;;5063287;28;20213;-66
2022/08/10 08:39:26;;;;;;;4.20;1.40;;;;;;;;;;5057276;28;20221;-67
2022/08/10 08:42:00;;;;;;;2.53;1.60;;;;;;;;;;5043860;28;20732;-65
2022/08/10 08:44:30;;;;;;;1.95;1.60;;;;;;;;;;5062097;28;20892;-62
2022/08/10 08:47:12;;;;;;;4.38;1.60;;;;;;;;;;5048338;28;20567;-66
2022/08/10 08:50:03;;;;;;;2.53;1.45;;;;;;;;;;5056422;28;20230;-65
2022/08/10 08:52:39;;;;;;;1.45;1.35;;;;;;;;;;5056020;28;20204;-64
2022/08/10 08:55:35;;;;;;;2.50;1.58;;;;;;;;;;5062713;28;20193;-66
2022/08/10 08:58:32;;;;;;;2.53;1.40;;;;;;;;;;5035398;28;20298;-66
2022/08/10 09:01:19;;;;;;;2.70;1.48;;;;;;;;;;5040781;28;20246;-65
2022/08/10 09:03:54;;;;;;;5.40;1.70;;;;;;;;;;5075191;28;20210;-65
2022/08/10 09:06:36;;;;;;;2.55;1.60;;;;;;;;;;5063982;28;20690;-63
2022/08/10 09:09:03;;;;;;;2.67;1.20;;;;;;;;;;5068082;28;20225;-65
2022/08/10 09:11:49;;;;;;;1.50;1.30;;;;;;;;;;5062961;28;20263;-66
2022/08/10 09:14:17;;;;;;;2.45;1.25;;;;;;;;;;5045249;28;20240;-65
2022/08/10 09:16:58;;;;;;;4.50;1.40;;;;;;;;;;5055703;28;20202;-65
2022/08/10 09:19:28;;;;;;;3.67;1.20;;;;;;;;;;5054228;28;20574;-64
2022/08/10 09:22:25;;;;;;;3.65;1.40;;;;;;;;;;5060289;28;20211;-65
2022/08/10 09:25:12;;;;;;;1.13;1.13;;;;;;;;;;5045757;28;20208;-64
2022/08/10 09:27:44;;;;;;;1.25;1.15;;;;;;;;;;5046529;28;20228;-64
2022/08/10 09:30:18;;;;;;;2.88;1.20;;;;;;;;;;5062616;28;20205;-63
2022/08/10 09:33:04;;;;;;;3.05;1.25;;;;;;;;;;5052352;28;20281;-64
2022/08/10 09:36:06;;;;;;;4.45;1.48;;;;;;;;;;5062647;28;20602;-65
2022/08/10 09:39:12;;;;;;;3.30;1.35;;;;;;;;;;5049219;28;20259;-65
2022/08/10 09:42:11;;;;;;;1.65;1.50;;;;;;;;;;5062498;28;20206;-64
2022/08/10 09:44:52;;;;;;;1.67;1.30;;;;;;;;;;5061650;28;20232;-66
2022/08/10 09:47:31;;;;;;;2.95;1.15;;;;;;;;;;5060569;28;20237;-66
2022/08/10 09:50:35;;;;;;;3.63;1.30;;;;;;;;;;5067729;28;20234;-67
2022/08/10 09:53:42;;;;;;;2.40;1.25;;;;;;;;;;5063879;28;20193;-66
2022/08/10 09:56:15;;;;;;;3.03;1.15;;;;;;;;;;5066707;28;20202;-66
2022/08/10 09:58:50;;;;;;;2.03;1.05;;;;;;;;;;5067674;28;20603;-66
2022/08/10 10:01:49;;;;;;;1.40;1.30;;;;;;;;;;5052763;28;20213;-65
2022/08/10 10:04:38;;;;;;;1.02;0.90;;;;;;;;;;5061456;28;20221;-65
2022/08/10 10:07:07;;;;;;;4.00;1.20;;;;;;;;;;5059475;28;20228;-65
2022/08/10 10:09:58;;;;;;;1.10;1.00;;;;;;;;;;5081288;28;20939;-65
2022/08/10 10:12:25;;;;;;;1.85;1.30;;;;;;;;;;5034281;28;20589;-65
2022/08/10 10:15:19;;;;;;;1.10;1.10;;;;;;;;;;5054555;28;20198;-66
2022/08/10 10:18:04;;;;;;;1.75;1.13;;;;;;;;;;5055094;28;20271;-65
2022/08/10 10:20:41;;;;;;;1.90;1.30;;;;;;;;;;5055510;28;20202;-65
2022/08/10 10:23:20;;;;;;;1.88;1.20;;;;;;;;;;5051123;28;20252;-65
2022/08/10 10:25:54;;;;;;;1.27;1.10;;;;;;;;;;5063243;28;20255;-65
2022/08/10 10:28:48;;;;;;;2.60;1.30;;;;;;;;;;5055388;28;20421;-64
2022/08/10 10:31:35;;;;;;;3.22;1.23;;;;;;;;;;5070805;28;20201;-65
2022/08/10 10:34:21;;;;;;;2.03;1.48;;;;;;;;;;5068887;28;20270;-66
2022/08/10 10:36:50;;;;;;;2.28;1.30;;;;;;;;;;5050788;28;20627;-66
2022/08/10 10:39:20;;;;;;;1.67;1.10;;;;;;;;;;5055387;28;20314;-66
2022/08/10 10:42:09;;;;;;;2.58;1.15;;;;;;;;;;5061297;28;20293;-66
2022/08/10 10:45:04;;;;;;;1.90;1.20;;;;;;;;;;5059634;28;20280;-66
2022/08/10 10:47:45;;;;;;;4.38;1.23;;;;;;;;;;5061059;28;20316;-66
2022/08/10 10:50:16;;;;;;;2.35;1.08;;;;;;;;;;5057314;28;20230;-65
2022/08/10 10:52:47;;;;;;;2.40;1.30;;;;;;;;;;5064366;28;20198;-65
2022/08/10 10:55:28;;;;;;;1.50;1.40;;;;;;;;;;5064081;28;20225;-66
2022/08/10 10:58:09;;;;;;;2.50;1.58;;;;;;;;;;5054388;28;20271;-65
2022/08/10 11:00:41;;;;;;;2.50;1.20;;;;;;;;;;5055655;28;20674;-66
2022/08/10 11:03:15;;;;;;;1.50;1.40;;;;;;;;;;5051151;28;20205;-66
2022/08/10 11:05:46;;;;;;;2.58;1.40;;;;;;;;;;5061570;28;20262;-65
2022/08/10 11:08:18;;;;;;;2.40;1.27;;;;;;;;;;5046292;28;20613;-65
2022/08/10 11:10:55;;;;;;;5.15;1.30;;;;;;;;;;5060393;28;20209;-65
2022/08/10 11:13:27;;;;;;;1.75;1.23;;;;;;;;;;5061255;28;20265;-65
2022/08/10 11:16:21;;;;;;;2.22;1.40;;;;;;;;;;5063224;28;20209;-65
2022/08/10 11:18:57;;;;;;;2.72;1.20;;;;;;;;;;5044980;28;20228;-65
2022/08/10 11:22:01;;;;;;;3.72;1.25;;;;;;;;;;5059948;28;20612;-65
2022/08/10 11:24:37;;;;;;;1.70;1.00;;;;;;;;;;5021723;28;20295;-65
2022/08/10 11:27:37;;;;;;;1.95;1.10;;;;;;;;;;5050241;28;20256;-66
2022/08/10 11:30:06;;;;;;;2.42;1.20;;;;;;;;;;5062569;28;20226;-66
2022/08/10 11:32:42;;;;;;;2.05;1.10;;;;;;;;;;5056383;28;20247;-66
2022/08/10 11:35:26;;;;;;;2.95;1.10;;;;;;;;;;5080046;28;20671;-65
2022/08/10 11:38:26;;;;;;;3.28;1.27;;;;;;;;;;5060222;28;20201;-65
2022/08/10 11:41:00;;;;;;;2.80;1.63;;;;;;;;;;5060683;28;20691;-64
2022/08/10 11:43:53;;;;;;;2.88;1.33;;;;;;;;;;5062591;28;20201;-64
2022/08/10 11:46:30;;;;;;;2.97;1.48;;;;;;;;;;5062121;28;20357;-66
2022/08/10 11:49:30;;;;;;;3.78;1.50;;;;;;;;;;5054914;28;20225;-66
2022/08/10 11:51:59;;;;;;;5.32;1.48;;;;;;;;;;5059600;28;20229;-65
2022/08/10 11:54:35;;;;;;;5.53;1.40;;;;;;;;;;5056366;28;20205;-65
2022/08/10 11:57:02;;;;;;;2.03;1.20;;;;;;;;;;5060790;28;20635;-65
2022/08/10 12:02:27;;;;;;;3.75;1.23;;;;;;;;;;5057909;28;20209;-65
2022/08/10 12:05:21;;;;;;;2.00;1.40;;;;;;;;;;5063953;28;20237;-65
2022/08/10 12:08:08;;;;;;;1.88;1.27;;;;;;;;;;5057086;28;20255;-65
2022/08/10 12:10:57;;;;;;;2.47;1.40;;;;;;;;;;5052460;28;20197;-65
2022/08/10 12:13:24;;;;;;;2.70;1.30;;;;;;;;;;5052969;28;20209;-65
2022/08/10 12:16:04;;;;;;;1.73;1.33;;;;;;;;;;5059223;28;20925;-66
2022/08/10 12:18:50;;;;;;;2.65;1.50;;;;;;;;;;5077903;28;20221;-66
2022/08/10 12:21:23;;;;;;;4.35;1.48;;;;;;;;;;5055930;28;20626;-66
2022/08/10 12:23:52;;;;;;;2.80;1.60;;;;;;;;;;5062682;28;20608;-64
2022/08/10 12:26:39;;;;;;;2.72;1.35;;;;;;;;;;5063102;28;20297;-65
2022/08/10 12:29:06;;;;;;;4.55;1.50;;;;;;;;;;5057247;28;20229;-65
2022/08/10 12:31:33;;;;;;;2.85;1.40;;;;;;;;;;5048535;28;20259;-66
2022/08/10 12:34:04;;;;;;;1.27;1.17;;;;;;;;;;5057909;28;20852;-66
2022/08/10 12:36:42;;;;;;;1.40;1.27;;;;;;;;;;5064469;28;20201;-66
2022/08/10 12:39:18;;;;;;;2.13;1.20;;;;;;;;;;5057387;28;20284;-65
2022/08/10 12:41:49;;;;;;;1.30;1.20;;;;;;;;;;5056008;28;20216;-65
2022/08/10 12:44:35;;;;;;;1.40;1.30;;;;;;;;;;5059873;28;20213;-64
2022/08/10 12:47:27;;;;;;;2.58;1.15;;;;;;;;;;5056006;28;20236;-65
2022/08/10 12:50:02;;;;;;;3.42;1.30;;;;;;;;;;5064318;28;20718;-66
2022/08/10 12:52:55;;;;;;;2.63;1.20;;;;;;;;;;5056705;28;20275;-66
2022/08/10 12:55:23;;;;;;;2.15;1.40;;;;;;;;;;5060259;28;20587;-66
2022/08/10 12:57:53;;;;;;;1.92;1.38;;;;;;;;;;5047461;28;20699;-65
2022/08/10 13:00:27;;;;;;;1.75;1.15;;;;;;;;;;5050526;28;20228;-66
2022/08/10 13:02:55;;;;;;;2.80;1.30;;;;;;;;;;5066787;28;20206;-66
2022/08/10 13:05:25;;;;;;;3.38;1.50;;;;;;;;;;5050406;28;20209;-66
2022/08/10 13:09:07;;;;;;;1.20;1.15;;;;;;;;;;5050694;28;20225;-65
2022/08/10 13:11:00;;;;;;;3.47;1.20;;;;;;;;;;5066275;28;20240;-66
2022/08/10 13:13:33;;;;;;;3.05;1.30;;;;;;;;;;5064941;28;20615;-66
2022/08/10 13:16:01;;;;;;;2.60;1.20;;;;;;;;;;5046626;28;20206;-67
2022/08/10 13:18:34;;;;;;;2.28;1.23;;;;;;;;;;5061824;28;20229;-67
2022/08/10 13:21:07;;;;;;;2.78;1.35;;;;;;;;;;5061103;28;20289;-66
2022/08/10 13:23:57;;;;;;;2.55;1.30;;;;;;;;;;5065256;28;20552;-67
2022/08/10 13:26:34;;;;;;;2.63;1.30;;;;;;;;;;5069582;28;20240;-66
2022/08/10 13:29:03;;;;;;;3.63;1.77;;;;;;;;;;5059612;28;20359;-67
2022/08/10 13:31:41;;;;;;;2.65;1.40;;;;;;;;;;5062669;28;20216;-66
2022/08/10 13:34:29;;;;;;;2.28;1.30;;;;;;;;;;5052397;28;20194;-66
2022/08/10 13:37:13;;;;;;;2.78;1.40;;;;;;;;;;5068949;28;20209;-66
2022/08/10 13:39:43;;;;;;;2.70;1.20;;;;;;;;;;5045690;28;20303;-66
2022/08/10 13:42:27;;;;;;;1.58;1.30;;;;;;;;;;5056438;28;20255;-66
2022/08/10 13:45:03;;;;;;;1.50;1.40;;;;;;;;;;5068020;28;20205;-67
2022/08/10 13:47:32;;;;;;;2.97;1.40;;;;;;;;;;5072483;28;20222;-66
2022/08/10 13:50:19;;;;;;;7.35;1.65;;;;;;;;;;5057939;28;20217;-67
2022/08/10 13:52:59;;;;;;;1.88;1.30;;;;;;;;;;5050312;28;20678;-66
2022/08/10 13:55:28;;;;;;;3.35;1.30;;;;;;;;;;5058419;28;20206;-66
2022/08/10 13:58:16;;;;;;;1.70;1.05;;;;;;;;;;5065738;28;20232;-66
2022/08/10 14:00:44;;;;;;;1.45;1.17;;;;;;;;;;5047697;28;20698;-66
2022/08/10 14:03:13;;;;;;;3.47;1.20;;;;;;;;;;5048372;28;20205;-66
2022/08/10 14:05:44;;;;;;;4.50;1.48;;;;;;;;;;5080727;28;20214;-65
2022/08/10 14:08:13;;;;;;;1.58;1.30;;;;;;;;;;5051839;28;20749;-66
2022/08/10 14:10:42;;;;;;;3.47;1.50;;;;;;;;;;5048131;28;20205;-66
2022/08/10 14:13:31;;;;;;;2.00;1.00;;;;;;;;;;5064246;28;20204;-66
2022/08/10 14:15:58;;;;;;;3.03;0.90;;;;;;;;;;5078452;28;20342;-66
2022/08/10 14:18:26;;;;;;;2.17;1.20;;;;;;;;;;5049073;28;20229;-65
2022/08/10 14:20:57;;;;;;;2.28;1.20;;;;;;;;;;5056228;28;20202;-66
2022/08/10 14:23:25;;;;;;;5.22;1.10;;;;;;;;;;5050863;28;20202;-66
2022/08/10 14:25:59;;;;;;;2.88;1.27;;;;;;;;;;5062833;28;20730;-66
2022/08/10 14:28:38;;;;;;;1.20;1.10;;;;;;;;;;5059069;28;20245;-66
2022/08/10 14:31:06;;;;;;;2.65;1.30;;;;;;;;;;5052313;28;20198;-66
2022/08/10 14:33:35;;;;;;;2.80;1.10;;;;;;;;;;5057577;28;20207;-66
2022/08/10 14:36:06;;;;;;;2.53;1.23;;;;;;;;;;5063080;28;20626;-65
2022/08/10 14:38:51;;;;;;;2.58;1.33;;;;;;;;;;5074416;28;20233;-66
2022/08/10 14:41:24;;;;;;;2.35;1.20;;;;;;;;;;5061446;28;20208;-66
2022/08/10 14:44:12;;;;;;;1.73;1.00;;;;;;;;;;5052813;28;20244;-66
2022/08/10 14:46:44;;;;;;;1.33;1.08;;;;;;;;;;5062470;28;20216;-66
2022/08/10 14:49:17;;;;;;;3.05;1.58;;;;;;;;;;5056926;28;20256;-66
2022/08/10 14:51:57;;;;;;;4.55;1.30;;;;;;;;;;5063913;28;20210;-66
2022/08/10 14:54:26;;;;;;;3.22;1.00;;;;;;;;;;5044504;28;20197;-66
2022/08/10 14:56:56;;;;;;;1.77;1.15;;;;;;;;;;5058000;28;20209;-66
2022/08/10 14:59:26;;;;;;;1.90;1.02;;;;;;;;;;5059498;28;20224;-65
2022/08/10 15:02:16;;;;;;;1.38;1.25;;;;;;;;;;5067198;28;20263;-66
2022/08/10 15:05:03;;;;;;;2.83;1.10;;;;;;;;;;5080109;28;20201;-66
2022/08/10 15:07:36;;;;;;;4.30;1.30;;;;;;;;;;5064011;28;20225;-66
2022/08/10 15:10:07;;;;;;;3.88;1.20;;;;;;;;;;5064140;28;20229;-66
2022/08/10 15:12:37;;;;;;;1.95;1.10;;;;;;;;;;5049821;28;20205;-66
2022/08/10 15:15:11;;;;;;;2.50;1.13;;;;;;;;;;5060844;28;20614;-66
2022/08/10 15:17:49;;;;;;;2.55;1.17;;;;;;;;;;5057344;28;20210;-66
2022/08/10 15:20:21;;;;;;;2.35;1.00;;;;;;;;;;5044375;28;20793;-66
2022/08/10 15:23:08;;;;;;;5.93;1.30;;;;;;;;;;5053317;28;20206;-66
2022/08/10 15:26:05;;;;;;;2.88;1.08;;;;;;;;;;5070747;28;20225;-67
2022/08/10 15:28:48;;;;;;;3.28;1.08;;;;;;;;;;5055422;28;20336;-66
2022/08/10 15:37:12;;;;;;;2.17;1.17;;;;;;;;;;5059691;28;20205;-66
2022/08/10 15:40:05;;;;;;;1.30;1.20;;;;;;;;;;5057203;28;20229;-66
2022/08/10 15:43:01;;;;;;;1.40;1.30;;;;;;;;;;5073821;28;20206;-66
2022/08/10 15:45:54;;;;;;;1.30;1.20;;;;;;;;;;5055029;28;20209;-66